Terminal Aerodrome Forecast
Issued by NWS Riverton, WY

Home | Current Version | Previous Version | Text Only | Print | Product List | Glossary On
Versions: 1 2 3 4 5 6 7 8 9 10 11 12
000
FTUS45 KRIW 181720
TAFRIW
TAF
KRIW 181720Z 1818/1918 VRB04KT P6SM SKC
     FM181900 20006KT P6SM FEW110
     FM190200 30008KT P6SM SKC=

USA.gov is the U.S. government's official web portal to all federal, state and local government web resources and services.